| time (UTC) | temp C | wind direction | speed KPH | gust KPH | rain 1hr cm | rain 24hr cm | rain mn cm | humidity % | barometer mb |
| 20260510151550 | 20 | 309 | 6.4 | 12.9 | 0.00 | 0.00 | 0.00 | 52 | 1008.7 |
| 20260510150550 | 21 | 333 | 0.0 | 3.2 | 0.00 | 0.00 | 0.00 | 49 | 1008.8 |
| 20260510145550 | 21 | 333 | 0.0 | 3.2 | 0.00 | 0.00 | 0.00 | 53 | 1008.8 |
| 20260510144549 | 21 | 333 | 0.0 | 0.0 | 0.00 | 0.00 | 0.00 | 49 | 1008.9 |
| 20260510143550 | 21 | 333 | 0.0 | 3.2 | 0.00 | 0.00 | 0.00 | 49 | 1009.1 |
| 20260510142549 | 21 | 333 | 0.0 | 4.8 | 0.00 | 0.00 | 0.00 | 50 | 1009.1 |
| 20260510141549 | 21 | 334 | 0.0 | 8.0 | 0.00 | 0.00 | 0.00 | 49 | 1009.1 |
| 20260510140548 | 21 | 55 | 1.6 | 11.3 | 0.00 | 0.00 | 0.00 | 49 | 1009.2 |
| 20260510135544 | 21 | 92 | 6.4 | 11.3 | 0.00 | 0.00 | 0.00 | 48 | 1009.3 |
| 20260510134543 | 21 | 68 | 1.6 | 6.4 | 0.00 | 0.00 | 0.00 | 50 | 1009.4 |
| 20260510133543 | 21 | 91 | 3.2 | 9.7 | 0.00 | 0.00 | 0.00 | 50 | 1009.5 |
| 20260510132545 | 21 | 139 | 3.2 | 11.3 | 0.00 | 0.00 | 0.00 | 49 | 1009.6 |
| 20260510131544 | 21 | 95 | 0.0 | 12.9 | 0.00 | 0.00 | 0.00 | 42 | 1009.8 |
| 20260510130541 | 22 | 32 | 3.2 | 9.7 | 0.00 | 0.00 | 0.00 | 48 | 1009.8 |
| 20260510124541 | 22 | 46 | 3.2 | 11.3 | 0.00 | 0.00 | 0.00 | 41 | 1010.0 |
| 20260510123543 | 22 | 106 | 1.6 | 12.9 | 0.00 | 0.00 | 0.00 | 48 | 1010.2 |
| 20260510122543 | 21 | 44 | 1.6 | 12.9 | 0.00 | 0.00 | 0.00 | 48 | 1010.4 |
| 20260510114542 | 21 | 100 | 4.8 | 14.5 | 0.00 | 0.00 | 0.00 | 49 | 1010.9 |
| 20260510113543 | 21 | 40 | 4.8 | 12.9 | 0.00 | 0.00 | 0.00 | 51 | 1011.0 |
| 20260510112541 | 21 | 26 | 3.2 | 14.5 | 0.00 | 0.00 | 0.00 | 51 | 1011.1 |
| 20260510111541 | 21 | 22 | 6.4 | 16.1 | 0.00 | 0.00 | 0.00 | 52 | 1011.2 |
| 20260510105538 | 21 | 103 | 4.8 | 11.3 | 0.00 | 0.00 | 0.00 | 50 | 1011.5 |
| 20260510103539 | 21 | 15 | 1.6 | 12.9 | 0.00 | 0.00 | 0.00 | 54 | 1011.4 |
| 20260510101537 | 21 | 46 | 4.8 | 11.3 | 0.00 | 0.00 | 0.00 | 55 | 1011.6 |
| 20260510100537 | 20 | 51 | 6.4 | 12.9 | 0.00 | 0.00 | 0.00 | 55 | 1011.7 |
| 20260510095536 | 20 | 54 | 6.4 | 12.9 | 0.00 | 0.00 | 0.00 | 57 | 1011.7 |
| 20260510093536 | 20 | 92 | 0.0 | 4.8 | 0.00 | 0.00 | 0.00 | 64 | 1011.8 |
| 20260510092536 | 20 | 87 | 1.6 | 8.0 | 0.00 | 0.00 | 0.00 | 66 | 1012.0 |
| 20260510091539 | 19 | 63 | 1.6 | 6.4 | 0.00 | 0.00 | 0.00 | 68 | 1011.9 |
| 20260510090539 | 18 | 307 | 0.0 | 4.8 | 0.00 | 0.00 | 0.00 | 73 | 1012.2 |
| 20260510085535 | 18 | 306 | 1.6 | 6.4 | 0.00 | 0.00 | 0.00 | 72 | 1012.2 |
| 20260510084537 | 17 | 61 | 0.0 | 4.8 | 0.00 | 0.00 | 0.00 | 73 | 1012.4 |
| 20260510083539 | 17 | 61 | 0.0 | 4.8 | 0.00 | 0.00 | 0.00 | 75 | 1012.4 |
| 20260510082534 | 16 | 63 | 0.0 | 4.8 | 0.00 | 0.00 | 0.00 | 76 | 1012.6 |
| 20260510081535 | 16 | 63 | 0.0 | 1.6 | 0.00 | 0.00 | 0.00 | 77 | 1012.8 |
| 20260510080537 | 15 | 63 | 0.0 | 0.0 | 0.00 | 0.00 | 0.00 | 79 | 1012.9 |
| 20260510075534 | 14 | 63 | 0.0 | 3.2 | 0.00 | 0.00 | 0.00 | 82 | 1012.9 |
| 20260510074538 | 13 | 63 | 0.0 | 0.0 | 0.00 | 0.00 | 0.00 | 82 | 1013.0 |
| 20260510073534 | 14 | 63 | 0.0 | 0.0 | 0.00 | 0.00 | 0.00 | 83 | 1013.2 |
| 20260510072538 | 12 | 63 | 0.0 | 1.6 | 0.00 | 0.00 | 0.00 | 87 | 1013.3 |
| 20260510071533 | 12 | 63 | 0.0 | 3.2 | 0.00 | 0.00 | 0.00 | 89 | 1013.4 |
| 20260510070537 | 11 | 63 | 0.0 | 4.8 | 0.00 | 0.00 | 0.00 | 90 | 1013.5 |
| 20260510065533 | 10 | 64 | 0.0 | 3.2 | 0.00 | 0.00 | 0.00 | 91 | 1013.6 |
| 20260510064535 | 10 | 64 | 0.0 | 3.2 | 0.00 | 0.00 | 0.00 | 92 | 1013.6 |
| 20260510063530 | 10 | 65 | 0.0 | 3.2 | 0.00 | 0.00 | 0.00 | 92 | 1013.5 |
| 20260510062529 | 9 | 73 | 0.0 | 0.0 | 0.00 | 0.00 | 0.00 | 93 | 1013.6 |
| 20260510061530 | 8 | 73 | 0.0 | 0.0 | 0.00 | 0.00 | 0.00 | 93 | 1013.6 |
| 20260510060529 | 8 | 73 | 0.0 | 0.0 | 0.00 | 0.00 | 0.00 | 93 | 1013.5 |
| 20260510055528 | 8 | 73 | 0.0 | 0.0 | 0.00 | 0.00 | 0.00 | 94 | 1013.6 |
| 20260510053532 | 7 | 73 | 0.0 | 0.0 | 0.00 | 0.00 | 0.00 | 93 | 1013.6 |
| 20260510052531 | 7 | 73 | 0.0 | 0.0 | 0.00 | 0.00 | 0.00 | 94 | 1013.6 |
| 20260510051529 | 7 | 73 | 0.0 | 0.0 | 0.00 | 0.00 | 0.00 | 94 | 1013.6 |
| 20260510050528 | 6 | 73 | 0.0 | 0.0 | 0.00 | 0.00 | 0.00 | 94 | 1013.8 |
| 20260510045528 | 6 | 73 | 0.0 | 0.0 | 0.00 | 0.00 | 0.00 | 94 | 1013.7 |
| 20260510044529 | 6 | 73 | 0.0 | 0.0 | 0.00 | 0.00 | 0.00 | 94 | 1013.9 |
| 20260510043531 | 6 | 73 | 0.0 | 0.0 | 0.00 | 0.00 | 0.00 | 94 | 1013.9 |
| 20260510042530 | 5 | 73 | 0.0 | 0.0 | 0.00 | 0.00 | 0.00 | 94 | 1013.9 |
| 20260510041532 | 5 | 73 | 0.0 | 0.0 | 0.00 | 0.00 | 0.00 | 94 | 1014.0 |
| 20260510040528 | 4 | 73 | 0.0 | 0.0 | 0.00 | 0.00 | 0.00 | 94 | 1014.0 |
| 20260510035529 | 4 | 73 | 0.0 | 0.0 | 0.00 | 0.00 | 0.00 | 94 | 1014.1 |
| 20260510033528 | 5 | 73 | 0.0 | 0.0 | 0.00 | 0.00 | 0.00 | 94 | 1014.3 |
| 20260510032531 | 5 | 73 | 0.0 | 0.0 | 0.00 | 0.00 | 0.00 | 94 | 1014.3 |
| 20260510031529 | 5 | 73 | 0.0 | 0.0 | 0.00 | 0.00 | 0.00 | 94 | 1014.5 |
| 20260510030531 | 5 | 73 | 0.0 | 0.0 | 0.00 | 0.00 | 0.00 | 94 | 1014.5 |
| 20260510025549 | 5 | 73 | 0.0 | 0.0 | 0.00 | 0.00 | 0.00 | 94 | 1014.7 |
| 20260510024533 | 5 | 73 | 0.0 | 0.0 | 0.00 | 0.00 | 0.00 | 94 | 1014.7 |
| 20260510023536 | 5 | 73 | 0.0 | 0.0 | 0.00 | 0.00 | 0.00 | 94 | 1014.7 |
| 20260510022533 | 5 | 73 | 0.0 | 0.0 | 0.00 | 0.00 | 0.00 | 94 | 1014.7 |
| 20260510021532 | 5 | 73 | 0.0 | 0.0 | 0.00 | 0.00 | 0.00 | 94 | 1014.7 |
| 20260510020527 | 5 | 73 | 0.0 | 0.0 | 0.00 | 0.00 | 0.00 | 94 | 1014.7 |
| 20260510015530 | 5 | 73 | 0.0 | 0.0 | 0.00 | 0.00 | 0.00 | 94 | 1014.8 |
| 20260510014530 | 5 | 73 | 0.0 | 0.0 | 0.00 | 0.00 | 0.00 | 94 | 1014.9 |
| 20260510013535 | 5 | 73 | 0.0 | 0.0 | 0.00 | 0.00 | 0.00 | 94 | 1014.9 |
| 20260510012551 | 6 | 73 | 0.0 | 0.0 | 0.00 | 0.00 | 0.00 | 94 | 1014.8 |
| 20260510011533 | 6 | 73 | 0.0 | 0.0 | 0.00 | 0.00 | 0.00 | 94 | 1014.9 |
| 20260510010533 | 6 | 73 | 0.0 | 0.0 | 0.00 | 0.00 | 0.00 | 94 | 1014.9 |
| 20260510005531 | 6 | 73 | 0.0 | 0.0 | 0.00 | 0.00 | 0.00 | 93 | 1014.9 |
| 20260510001542 | 6 | 73 | 0.0 | 0.0 | 0.00 | 0.00 | 0.00 | 93 | 1015.4 |
| 20260510000534 | 6 | 73 | 0.0 | 0.0 | 0.00 | 0.00 | 0.00 | 93 | 1015.4 |
| 20260509235534 | 6 | 73 | 0.0 | 0.0 | 0.00 | 0.00 | 0.00 | 93 | 1015.6 |
| 20260509234529 | 7 | 73 | 0.0 | 0.0 | 0.00 | 0.00 | 0.00 | 92 | 1015.6 |
| 20260509233528 | 7 | 73 | 0.0 | 0.0 | 0.00 | 0.00 | 0.00 | 93 | 1015.8 |
| 20260509232529 | 7 | 73 | 0.0 | 0.0 | 0.00 | 0.00 | 0.00 | 93 | 1015.8 |
| 20260509231530 | 7 | 73 | 0.0 | 0.0 | 0.00 | 0.00 | 0.00 | 93 | 1015.8 |
| 20260509230526 | 7 | 73 | 0.0 | 0.0 | 0.00 | 0.00 | 0.00 | 92 | 1015.9 |
| 20260509225527 | 7 | 73 | 0.0 | 0.0 | 0.00 | 0.00 | 0.00 | 92 | 1015.8 |
| 20260509222527 | 7 | 73 | 0.0 | 0.0 | 0.00 | 0.00 | 0.00 | 91 | 1016.3 |
| 20260509221530 | 8 | 73 | 0.0 | 0.0 | 0.00 | 0.00 | 0.00 | 90 | 1016.3 |
| 20260509220529 | 8 | 73 | 0.0 | 0.0 | 0.00 | 0.00 | 0.00 | 90 | 1016.4 |
| 20260509215523 | 8 | 73 | 0.0 | 0.0 | 0.00 | 0.00 | 0.00 | 90 | 1016.5 |
| 20260509214527 | 8 | 73 | 0.0 | 0.0 | 0.00 | 0.00 | 0.00 | 90 | 1016.3 |
| 20260509213522 | 8 | 73 | 0.0 | 0.0 | 0.00 | 0.00 | 0.00 | 89 | 1016.4 |
| 20260509212524 | 9 | 73 | 0.0 | 0.0 | 0.00 | 0.00 | 0.00 | 88 | 1016.4 |
| 20260509210521 | 10 | 73 | 0.0 | 0.0 | 0.00 | 0.00 | 0.00 | 87 | 1016.4 |
| 20260509205527 | 10 | 73 | 0.0 | 0.0 | 0.00 | 0.00 | 0.00 | 86 | 1016.4 |
| 20260509204525 | 10 | 73 | 0.0 | 0.0 | 0.00 | 0.00 | 0.00 | 86 | 1016.2 |
| 20260509203530 | 10 | 73 | 0.0 | 0.0 | 0.00 | 0.00 | 0.00 | 85 | 1016.3 |
| 20260509202527 | 11 | 73 | 0.0 | 0.0 | 0.00 | 0.00 | 0.00 | 85 | 1016.2 |
| 20260509201525 | 11 | 73 | 0.0 | 0.0 | 0.00 | 0.00 | 0.00 | 84 | 1015.9 |
| 20260509195527 | 11 | 73 | 0.0 | 0.0 | 0.00 | 0.00 | 0.00 | 80 | 1016.4 |
| 20260509194525 | 12 | 73 | 0.0 | 3.2 | 0.00 | 0.00 | 0.00 | 80 | 1016.4 |
| 20260509193525 | 12 | 73 | 0.0 | 3.2 | 0.00 | 0.00 | 0.00 | 78 | 1016.2 |
| 20260509192526 | 13 | 73 | 0.0 | 0.0 | 0.00 | 0.00 | 0.00 | 76 | 1015.9 |
| 20260509191524 | 13 | 73 | 0.0 | 3.2 | 0.00 | 0.00 | 0.00 | 74 | 1015.9 |
| 20260509190522 | 14 | 73 | 0.0 | 4.8 | 0.00 | 0.00 | 0.00 | 71 | 1015.8 |
| 20260509185522 | 15 | 73 | 0.0 | 3.2 | 0.00 | 0.00 | 0.00 | 69 | 1015.7 |
| 20260509184522 | 16 | 73 | 0.0 | 0.0 | 0.00 | 0.00 | 0.00 | 66 | 1015.6 |
| 20260509183521 | 17 | 73 | 0.0 | 0.0 | 0.00 | 0.00 | 0.00 | 62 | 1015.5 |
| 20260509182522 | 17 | 73 | 0.0 | 6.4 | 0.00 | 0.00 | 0.00 | 59 | 1015.4 |
| 20260509181524 | 17 | 72 | 0.0 | 4.8 | 0.00 | 0.00 | 0.00 | 56 | 1015.3 |
| 20260509180522 | 18 | 71 | 0.0 | 6.4 | 0.00 | 0.00 | 0.00 | 55 | 1015.4 |
| 20260509174522 | 18 | 96 | 1.6 | 11.3 | 0.00 | 0.00 | 0.00 | 53 | 1015.5 |
| 20260509173521 | 18 | 80 | 3.2 | 11.3 | 0.00 | 0.00 | 0.00 | 53 | 1015.3 |
| 20260509172525 | 18 | 81 | 3.2 | 9.7 | 0.00 | 0.00 | 0.00 | 52 | 1015.5 |
| 20260509171520 | 18 | 70 | 1.6 | 8.0 | 0.00 | 0.00 | 0.00 | 53 | 1015.5 |
| 20260509170520 | 18 | 93 | 3.2 | 12.9 | 0.00 | 0.00 | 0.00 | 46 | 1015.6 |
| 20260509165521 | 19 | 96 | 1.6 | 12.9 | 0.00 | 0.00 | 0.00 | 53 | 1015.5 |
| 20260509163525 | 20 | 117 | 3.2 | 9.7 | 0.00 | 0.00 | 0.00 | 48 | 1015.6 |
| 20260509162521 | 20 | 96 | 0.0 | 4.8 | 0.00 | 0.00 | 0.00 | 48 | 1015.8 |
| 20260509154519 | 20 | 61 | 3.2 | 8.0 | 0.00 | 0.00 | 0.00 | 48 | 1016.1 |
| 20260509153516 | 19 | 78 | 1.6 | 8.0 | 0.00 | 0.00 | 0.00 | 48 | 1016.2 |
| 20260509152515 | 19 | 105 | 0.0 | 9.7 | 0.00 | 0.00 | 0.00 | 49 | 1016.2 |